sensor_id;sensor_type;location;lat;lon;timestamp;temperature;humidity
38936;DHT22;66589;47.458;9.644;2023-06-26T03:16:36;20.40;72.40
38936;DHT22;66589;47.458;9.644;2023-06-26T03:19:01;20.30;72.60
38936;DHT22;66589;47.458;9.644;2023-06-26T03:21:27;20.20;72.40
38936;DHT22;66589;47.458;9.644;2023-06-26T03:23:53;20.20;73.60
38936;DHT22;66589;47.458;9.644;2023-06-26T03:26:18;20.10;72.80
38936;DHT22;66589;47.458;9.644;2023-06-26T03:28:44;20.10;73.00
38936;DHT22;66589;47.458;9.644;2023-06-26T03:31:09;20.10;73.10
38936;DHT22;66589;47.458;9.644;2023-06-26T03:33:36;20.00;73.70
38936;DHT22;66589;47.458;9.644;2023-06-26T03:36:02;20.00;74.00
38936;DHT22;66589;47.458;9.644;2023-06-26T03:38:28;20.00;74.70
38936;DHT22;66589;47.458;9.644;2023-06-26T03:40:53;20.00;74.80
38936;DHT22;66589;47.458;9.644;2023-06-26T03:43:19;20.00;74.50
38936;DHT22;66589;47.458;9.644;2023-06-26T03:45:45;20.00;74.30
38936;DHT22;66589;47.458;9.644;2023-06-26T03:48:11;20.10;73.40
38936;DHT22;66589;47.458;9.644;2023-06-26T03:50:37;20.20;71.50
38936;DHT22;66589;47.458;9.644;2023-06-26T03:53:03;20.40;70.40
38936;DHT22;66589;47.458;9.644;2023-06-26T03:55:28;20.70;70.80
38936;DHT22;66589;47.458;9.644;2023-06-26T03:57:54;20.90;70.10
38936;DHT22;66589;47.458;9.644;2023-06-26T04:00:20;21.10;69.70
38936;DHT22;66589;47.458;9.644;2023-06-26T04:02:45;21.30;70.00
38936;DHT22;66589;47.458;9.644;2023-06-26T04:05:11;21.60;68.30
38936;DHT22;66589;47.458;9.644;2023-06-26T04:07:37;22.00;68.20
38936;DHT22;66589;47.458;9.644;2023-06-26T04:10:03;22.40;67.10
38936;DHT22;66589;47.458;9.644;2023-06-26T04:12:29;22.70;65.30
38936;DHT22;66589;47.458;9.644;2023-06-26T04:14:55;23.10;64.50
38936;DHT22;66589;47.458;9.644;2023-06-26T04:17:20;23.50;63.40
38936;DHT22;66589;47.458;9.644;2023-06-26T04:19:47;23.90;61.30
38936;DHT22;66589;47.458;9.644;2023-06-26T04:22:12;24.30;60.30
38936;DHT22;66589;47.458;9.644;2023-06-26T04:24:38;24.60;59.20
38936;DHT22;66589;47.458;9.644;2023-06-26T04:27:04;25.00;58.60
38936;DHT22;66589;47.458;9.644;2023-06-26T04:29:31;25.30;57.80
38936;DHT22;66589;47.458;9.644;2023-06-26T04:31:56;25.60;56.90
38936;DHT22;66589;47.458;9.644;2023-06-26T04:34:27;26.00;56.00
38936;DHT22;66589;47.458;9.644;2023-06-26T04:36:53;26.40;55.80
38936;DHT22;66589;47.458;9.644;2023-06-26T04:39:19;26.60;55.40
38936;DHT22;66589;47.458;9.644;2023-06-26T04:41:45;26.90;54.90
38936;DHT22;66589;47.458;9.644;2023-06-26T04:44:11;27.10;54.20
38936;DHT22;66589;47.458;9.644;2023-06-26T04:46:37;27.50;53.50
38936;DHT22;66589;47.458;9.644;2023-06-26T04:49:09;27.70;53.90
38936;DHT22;66589;47.458;9.644;2023-06-26T04:51:35;28.00;53.00
38936;DHT22;66589;47.458;9.644;2023-06-26T04:54:06;28.40;52.80
38936;DHT22;66589;47.458;9.644;2023-06-26T04:56:32;28.90;52.60
38936;DHT22;66589;47.458;9.644;2023-06-26T04:58:59;29.40;52.30
38936;DHT22;66589;47.458;9.644;2023-06-26T05:01:24;30.10;52.30
38936;DHT22;66589;47.458;9.644;2023-06-26T05:03:50;30.50;51.10
38936;DHT22;66589;47.458;9.644;2023-06-26T05:06:15;30.50;51.70
38936;DHT22;66589;47.458;9.644;2023-06-26T05:08:41;31.00;51.00
38936;DHT22;66589;47.458;9.644;2023-06-26T05:11:07;31.70;50.00
38936;DHT22;66589;47.458;9.644;2023-06-26T05:13:32;32.50;49.10
38936;DHT22;66589;47.458;9.644;2023-06-26T05:15:58;32.50;48.90
38936;DHT22;66589;47.458;9.644;2023-06-26T05:18:24;32.50;48.30
38936;DHT22;66589;47.458;9.644;2023-06-26T05:20:49;33.00;48.10
38936;DHT22;66589;47.458;9.644;2023-06-26T05:23:16;33.60;47.60
38936;DHT22;66589;47.458;9.644;2023-06-26T05:25:42;34.40;47.30
38936;DHT22;66589;47.458;9.644;2023-06-26T05:28:08;35.00;46.50
38936;DHT22;66589;47.458;9.644;2023-06-26T05:30:36;35.30;45.40
38936;DHT22;66589;47.458;9.644;2023-06-26T05:33:02;35.50;44.60
38936;DHT22;66589;47.458;9.644;2023-06-26T05:35:29;35.70;44.20
38936;DHT22;66589;47.458;9.644;2023-06-26T05:37:56;35.40;45.20
38936;DHT22;66589;47.458;9.644;2023-06-26T05:40:22;36.30;43.90
38936;DHT22;66589;47.458;9.644;2023-06-26T05:42:48;36.50;43.40
38936;DHT22;66589;47.458;9.644;2023-06-26T05:45:14;36.80;44.00
38936;DHT22;66589;47.458;9.644;2023-06-26T05:47:40;37.10;41.90
38936;DHT22;66589;47.458;9.644;2023-06-26T05:50:08;36.90;43.30
38936;DHT22;66589;47.458;9.644;2023-06-26T05:52:34;36.70;42.60
38936;DHT22;66589;47.458;9.644;2023-06-26T05:55:01;37.20;42.70
38936;DHT22;66589;47.458;9.644;2023-06-26T05:57:28;37.90;41.90
38936;DHT22;66589;47.458;9.644;2023-06-26T05:59:54;37.60;41.10
38936;DHT22;66589;47.458;9.644;2023-06-26T06:02:20;38.40;41.90
38936;DHT22;66589;47.458;9.644;2023-06-26T06:04:46;38.80;41.80
38936;DHT22;66589;47.458;9.644;2023-06-26T06:07:12;39.40;41.10
38936;DHT22;66589;47.458;9.644;2023-06-26T06:09:38;39.10;40.50
38936;DHT22;66589;47.458;9.644;2023-06-26T06:12:05;38.90;40.20
38936;DHT22;66589;47.458;9.644;2023-06-26T06:14:31;39.00;40.30
38936;DHT22;66589;47.458;9.644;2023-06-26T06:16:57;39.10;40.60
38936;DHT22;66589;47.458;9.644;2023-06-26T06:19:23;39.40;38.10
38936;DHT22;66589;47.458;9.644;2023-06-26T06:21:49;40.80;37.60
38936;DHT22;66589;47.458;9.644;2023-06-26T06:24:14;40.70;36.00
38936;DHT22;66589;47.458;9.644;2023-06-26T06:26:40;40.50;37.30
38936;DHT22;66589;47.458;9.644;2023-06-26T06:29:06;41.00;37.60
38936;DHT22;66589;47.458;9.644;2023-06-26T06:31:31;41.20;35.60
38936;DHT22;66589;47.458;9.644;2023-06-26T06:33:57;41.30;35.90
38936;DHT22;66589;47.458;9.644;2023-06-26T06:36:23;41.70;35.70
38936;DHT22;66589;47.458;9.644;2023-06-26T06:38:48;42.10;36.00
38936;DHT22;66589;47.458;9.644;2023-06-26T06:41:14;42.70;34.80
38936;DHT22;66589;47.458;9.644;2023-06-26T06:43:40;43.00;35.50
38936;DHT22;66589;47.458;9.644;2023-06-26T06:46:06;42.60;35.70
38936;DHT22;66589;47.458;9.644;2023-06-26T06:48:32;43.10;35.40
38936;DHT22;66589;47.458;9.644;2023-06-26T06:50:58;43.90;36.00
38936;DHT22;66589;47.458;9.644;2023-06-26T06:53:23;44.50;33.70
38936;DHT22;66589;47.458;9.644;2023-06-26T06:55:49;44.50;32.80
38936;DHT22;66589;47.458;9.644;2023-06-26T06:58:15;44.20;35.20
38936;DHT22;66589;47.458;9.644;2023-06-26T07:00:48;44.40;35.50
38936;DHT22;66589;47.458;9.644;2023-06-26T07:03:14;45.10;35.20
38936;DHT22;66589;47.458;9.644;2023-06-26T07:05:41;45.70;35.50
38936;DHT22;66589;47.458;9.644;2023-06-26T07:08:07;45.70;35.10
38936;DHT22;66589;47.458;9.644;2023-06-26T07:10:33;45.80;35.50
38936;DHT22;66589;47.458;9.644;2023-06-26T07:12:59;46.10;35.20
38936;DHT22;66589;47.458;9.644;2023-06-26T07:15:25;45.60;35.00
38936;DHT22;66589;47.458;9.644;2023-06-26T07:17:50;45.40;35.90
38936;DHT22;66589;47.458;9.644;2023-06-26T07:20:16;46.00;35.30
38936;DHT22;66589;47.458;9.644;2023-06-26T07:22:42;46.50;35.30
38936;DHT22;66589;47.458;9.644;2023-06-26T07:25:10;46.80;34.10
38936;DHT22;66589;47.458;9.644;2023-06-26T07:27:39;47.30;33.70
38936;DHT22;66589;47.458;9.644;2023-06-26T07:30:06;47.30;35.00
38936;DHT22;66589;47.458;9.644;2023-06-26T07:32:34;47.60;34.60
38936;DHT22;66589;47.458;9.644;2023-06-26T07:35:00;47.80;34.50
38936;DHT22;66589;47.458;9.644;2023-06-26T07:37:26;47.20;33.60
38936;DHT22;66589;47.458;9.644;2023-06-26T07:39:51;46.90;34.90
38936;DHT22;66589;47.458;9.644;2023-06-26T07:42:17;46.90;35.60
38936;DHT22;66589;47.458;9.644;2023-06-26T07:44:43;47.50;34.80
38936;DHT22;66589;47.458;9.644;2023-06-26T07:47:09;47.60;34.80
38936;DHT22;66589;47.458;9.644;2023-06-26T07:49:35;47.70;34.80
38936;DHT22;66589;47.458;9.644;2023-06-26T07:52:01;47.40;33.40
38936;DHT22;66589;47.458;9.644;2023-06-26T07:54:27;47.10;33.10
38936;DHT22;66589;47.458;9.644;2023-06-26T07:57:00;46.60;33.20
38936;DHT22;66589;47.458;9.644;2023-06-26T07:59:27;46.00;32.00
38936;DHT22;66589;47.458;9.644;2023-06-26T08:01:54;44.60;32.10
38936;DHT22;66589;47.458;9.644;2023-06-26T08:04:21;45.00;33.10
38936;DHT22;66589;47.458;9.644;2023-06-26T08:06:54;45.10;33.30
38936;DHT22;66589;47.458;9.644;2023-06-26T08:09:22;45.90;31.20
38936;DHT22;66589;47.458;9.644;2023-06-26T08:11:47;45.70;31.60
38936;DHT22;66589;47.458;9.644;2023-06-26T08:14:13;46.20;31.50
38936;DHT22;66589;47.458;9.644;2023-06-26T08:16:43;47.10;31.60
38936;DHT22;66589;47.458;9.644;2023-06-26T08:19:13;47.50;31.10
38936;DHT22;66589;47.458;9.644;2023-06-26T08:21:45;47.10;30.60
38936;DHT22;66589;47.458;9.644;2023-06-26T08:24:12;46.30;32.50
38936;DHT22;66589;47.458;9.644;2023-06-26T08:26:38;47.60;31.70
38936;DHT22;66589;47.458;9.644;2023-06-26T08:29:05;48.60;30.90
38936;DHT22;66589;47.458;9.644;2023-06-26T08:31:37;49.20;30.00
38936;DHT22;66589;47.458;9.644;2023-06-26T08:34:04;49.50;30.80
38936;DHT22;66589;47.458;9.644;2023-06-26T08:36:30;49.40;29.90
38936;DHT22;66589;47.458;9.644;2023-06-26T08:38:56;49.40;30.00
38936;DHT22;66589;47.458;9.644;2023-06-26T08:41:21;49.80;31.60
38936;DHT22;66589;47.458;9.644;2023-06-26T08:43:47;49.70;32.80
38936;DHT22;66589;47.458;9.644;2023-06-26T08:46:14;49.20;32.70
38936;DHT22;66589;47.458;9.644;2023-06-26T08:48:43;49.20;32.80
38936;DHT22;66589;47.458;9.644;2023-06-26T08:51:12;50.10;33.00
38936;DHT22;66589;47.458;9.644;2023-06-26T08:56:08;49.30;32.50
38936;DHT22;66589;47.458;9.644;2023-06-26T08:58:35;50.20;32.50
38936;DHT22;66589;47.458;9.644;2023-06-26T09:01:04;50.20;33.50
38936;DHT22;66589;47.458;9.644;2023-06-26T09:03:31;49.90;32.30
38936;DHT22;66589;47.458;9.644;2023-06-26T09:05:57;49.60;33.10
38936;DHT22;66589;47.458;9.644;2023-06-26T09:08:22;48.90;31.60
38936;DHT22;66589;47.458;9.644;2023-06-26T09:10:48;47.50;32.70
38936;DHT22;66589;47.458;9.644;2023-06-26T09:13:14;46.80;33.60
38936;DHT22;66589;47.458;9.644;2023-06-26T09:15:43;47.40;31.60
38936;DHT22;66589;47.458;9.644;2023-06-26T09:18:09;48.10;30.20
38936;DHT22;66589;47.458;9.644;2023-06-26T09:20:35;48.20;30.20
38936;DHT22;66589;47.458;9.644;2023-06-26T09:23:01;48.30;30.50
38936;DHT22;66589;47.458;9.644;2023-06-26T09:25:28;49.00;31.30
38936;DHT22;66589;47.458;9.644;2023-06-26T09:27:54;49.70;30.70
38936;DHT22;66589;47.458;9.644;2023-06-26T09:30:21;50.60;30.50
38936;DHT22;66589;47.458;9.644;2023-06-26T09:32:47;51.20;30.70
38936;DHT22;66589;47.458;9.644;2023-06-26T09:35:15;51.10;29.70
38936;DHT22;66589;47.458;9.644;2023-06-26T09:37:40;51.00;30.00
38936;DHT22;66589;47.458;9.644;2023-06-26T09:40:07;50.60;30.70
38936;DHT22;66589;47.458;9.644;2023-06-26T09:42:33;49.90;30.80
38936;DHT22;66589;47.458;9.644;2023-06-26T09:44:59;48.60;31.80
38936;DHT22;66589;47.458;9.644;2023-06-26T09:47:25;47.20;31.70
38936;DHT22;66589;47.458;9.644;2023-06-26T09:49:52;48.10;31.70
38936;DHT22;66589;47.458;9.644;2023-06-26T09:52:20;47.30;32.10
38936;DHT22;66589;47.458;9.644;2023-06-26T09:54:46;47.20;33.20
38936;DHT22;66589;47.458;9.644;2023-06-26T09:57:13;47.60;32.90
38936;DHT22;66589;47.458;9.644;2023-06-26T09:59:41;47.40;32.40
38936;DHT22;66589;47.458;9.644;2023-06-26T10:02:07;46.90;32.90
38936;DHT22;66589;47.458;9.644;2023-06-26T10:04:35;46.70;32.10
38936;DHT22;66589;47.458;9.644;2023-06-26T10:07:06;46.00;33.70
38936;DHT22;66589;47.458;9.644;2023-06-26T10:09:32;44.30;34.00
38936;DHT22;66589;47.458;9.644;2023-06-26T10:12:02;42.00;35.00
38936;DHT22;66589;47.458;9.644;2023-06-26T10:14:35;41.20;35.80
38936;DHT22;66589;47.458;9.644;2023-06-26T10:17:06;40.20;36.40
38936;DHT22;66589;47.458;9.644;2023-06-26T10:19:33;39.40;37.20
38936;DHT22;66589;47.458;9.644;2023-06-26T10:22:02;38.90;37.50
38936;DHT22;66589;47.458;9.644;2023-06-26T10:24:30;38.50;38.50
38936;DHT22;66589;47.458;9.644;2023-06-26T10:27:08;38.40;39.70
38936;DHT22;66589;47.458;9.644;2023-06-26T10:29:37;38.10;40.90
38936;DHT22;66589;47.458;9.644;2023-06-26T10:32:04;37.70;39.70
38936;DHT22;66589;47.458;9.644;2023-06-26T10:34:30;37.40;40.10
38936;DHT22;66589;47.458;9.644;2023-06-26T10:37:03;37.10;41.90
38936;DHT22;66589;47.458;9.644;2023-06-26T10:39:51;36.80;43.00
38936;DHT22;66589;47.458;9.644;2023-06-26T10:42:20;36.60;43.60
38936;DHT22;66589;47.458;9.644;2023-06-26T10:45:19;36.60;41.80
38936;DHT22;66589;47.458;9.644;2023-06-26T10:47:47;36.50;41.20
38936;DHT22;66589;47.458;9.644;2023-06-26T10:50:24;36.50;41.40
38936;DHT22;66589;47.458;9.644;2023-06-26T10:56:03;35.80;42.00
38936;DHT22;66589;47.458;9.644;2023-06-26T11:06:23;35.70;42.70
38936;DHT22;66589;47.458;9.644;2023-06-26T11:08:53;35.70;41.20
38936;DHT22;66589;47.458;9.644;2023-06-26T11:11:22;35.50;42.40
38936;DHT22;66589;47.458;9.644;2023-06-26T11:14:08;35.60;44.50
38936;DHT22;66589;47.458;9.644;2023-06-26T11:16:34;35.70;44.10
38936;DHT22;66589;47.458;9.644;2023-06-26T11:19:00;35.60;45.50
38936;DHT22;66589;47.458;9.644;2023-06-26T11:21:26;35.50;43.30
38936;DHT22;66589;47.458;9.644;2023-06-26T11:23:53;35.60;41.80
38936;DHT22;66589;47.458;9.644;2023-06-26T11:26:23;35.60;41.90
38936;DHT22;66589;47.458;9.644;2023-06-26T11:28:54;35.60;42.50
38936;DHT22;66589;47.458;9.644;2023-06-26T11:31:30;35.60;42.20
38936;DHT22;66589;47.458;9.644;2023-06-26T11:33:56;35.50;44.30
38936;DHT22;66589;47.458;9.644;2023-06-26T11:36:24;35.50;43.50
38936;DHT22;66589;47.458;9.644;2023-06-26T11:39:00;35.60;42.30
38936;DHT22;66589;47.458;9.644;2023-06-26T11:41:28;35.60;42.10
38936;DHT22;66589;47.458;9.644;2023-06-26T11:43:54;35.50;42.50
38936;DHT22;66589;47.458;9.644;2023-06-26T11:46:21;35.40;42.70
38936;DHT22;66589;47.458;9.644;2023-06-26T11:48:48;35.20;43.10
38936;DHT22;66589;47.458;9.644;2023-06-26T11:51:14;35.10;43.70
38936;DHT22;66589;47.458;9.644;2023-06-26T11:53:45;35.10;41.30
38936;DHT22;66589;47.458;9.644;2023-06-26T11:56:15;34.80;43.10
38936;DHT22;66589;47.458;9.644;2023-06-26T12:01:36;35.00;41.00
38936;DHT22;66589;47.458;9.644;2023-06-26T12:04:06;34.70;40.90
38936;DHT22;66589;47.458;9.644;2023-06-26T12:06:39;34.60;41.60
38936;DHT22;66589;47.458;9.644;2023-06-26T12:09:07;34.40;42.20
38936;DHT22;66589;47.458;9.644;2023-06-26T12:11:35;34.40;41.60
38936;DHT22;66589;47.458;9.644;2023-06-26T12:14:02;34.40;42.50
38936;DHT22;66589;47.458;9.644;2023-06-26T12:16:29;34.50;43.50
38936;DHT22;66589;47.458;9.644;2023-06-26T12:19:02;34.70;41.40
38936;DHT22;66589;47.458;9.644;2023-06-26T12:21:48;34.80;41.70
38936;DHT22;66589;47.458;9.644;2023-06-26T12:24:19;34.60;41.40
38936;DHT22;66589;47.458;9.644;2023-06-26T12:26:50;34.20;42.50
38936;DHT22;66589;47.458;9.644;2023-06-26T12:29:18;34.30;42.30
38936;DHT22;66589;47.458;9.644;2023-06-26T12:31:49;34.70;43.60
38936;DHT22;66589;47.458;9.644;2023-06-26T12:34:17;34.90;42.00
38936;DHT22;66589;47.458;9.644;2023-06-26T12:36:52;34.70;41.90
38936;DHT22;66589;47.458;9.644;2023-06-26T12:39:20;34.50;41.50
38936;DHT22;66589;47.458;9.644;2023-06-26T12:41:53;34.60;42.10
38936;DHT22;66589;47.458;9.644;2023-06-26T12:44:26;34.80;43.00
38936;DHT22;66589;47.458;9.644;2023-06-26T12:46:58;34.80;39.60
38936;DHT22;66589;47.458;9.644;2023-06-26T12:49:35;35.00;41.60
38936;DHT22;66589;47.458;9.644;2023-06-26T12:52:04;35.00;40.10
38936;DHT22;66589;47.458;9.644;2023-06-26T12:54:29;35.00;41.40
38936;DHT22;66589;47.458;9.644;2023-06-26T12:56:56;35.00;42.60
38936;DHT22;66589;47.458;9.644;2023-06-26T12:59:21;35.00;42.10
38936;DHT22;66589;47.458;9.644;2023-06-26T13:01:47;35.00;41.40
38936;DHT22;66589;47.458;9.644;2023-06-26T13:04:13;34.70;39.80
38936;DHT22;66589;47.458;9.644;2023-06-26T13:06:39;34.70;43.00
38936;DHT22;66589;47.458;9.644;2023-06-26T13:09:05;34.80;42.80
38936;DHT22;66589;47.458;9.644;2023-06-26T13:11:31;34.80;42.20
38936;DHT22;66589;47.458;9.644;2023-06-26T13:13:57;34.90;41.40
38936;DHT22;66589;47.458;9.644;2023-06-26T13:16:23;34.70;41.40
38936;DHT22;66589;47.458;9.644;2023-06-26T13:18:49;34.70;41.40
38936;DHT22;66589;47.458;9.644;2023-06-26T13:21:14;34.70;42.20
38936;DHT22;66589;47.458;9.644;2023-06-26T13:23:41;34.80;40.80
38936;DHT22;66589;47.458;9.644;2023-06-26T13:26:06;34.80;40.90
38936;DHT22;66589;47.458;9.644;2023-06-26T13:28:32;34.70;42.60
38936;DHT22;66589;47.458;9.644;2023-06-26T13:30:58;34.70;42.50
38936;DHT22;66589;47.458;9.644;2023-06-26T13:33:24;34.70;41.70
38936;DHT22;66589;47.458;9.644;2023-06-26T13:35:52;34.90;42.80
38936;DHT22;66589;47.458;9.644;2023-06-26T13:38:21;34.90;42.00
38936;DHT22;66589;47.458;9.644;2023-06-26T13:40:59;34.80;40.60
38936;DHT22;66589;47.458;9.644;2023-06-26T13:43:29;35.00;42.00
38936;DHT22;66589;47.458;9.644;2023-06-26T13:45:55;34.70;41.10
38936;DHT22;66589;47.458;9.644;2023-06-26T13:48:21;34.80;42.10
38936;DHT22;66589;47.458;9.644;2023-06-26T13:50:50;34.90;41.40
38936;DHT22;66589;47.458;9.644;2023-06-26T13:53:16;34.80;42.60
38936;DHT22;66589;47.458;9.644;2023-06-26T13:55:42;34.80;40.50
38936;DHT22;66589;47.458;9.644;2023-06-26T13:58:08;34.70;41.20
38936;DHT22;66589;47.458;9.644;2023-06-26T14:00:35;34.60;42.30
38936;DHT22;66589;47.458;9.644;2023-06-26T14:03:02;34.60;40.80
38936;DHT22;66589;47.458;9.644;2023-06-26T14:05:29;34.60;41.20
38936;DHT22;66589;47.458;9.644;2023-06-26T14:07:55;34.60;41.70
38936;DHT22;66589;47.458;9.644;2023-06-26T14:10:22;34.70;41.80
38936;DHT22;66589;47.458;9.644;2023-06-26T14:12:48;34.70;40.70
38936;DHT22;66589;47.458;9.644;2023-06-26T14:15:14;34.80;41.10
38936;DHT22;66589;47.458;9.644;2023-06-26T14:17:39;34.70;40.50
38936;DHT22;66589;47.458;9.644;2023-06-26T14:20:06;34.70;40.70
38936;DHT22;66589;47.458;9.644;2023-06-26T14:22:36;34.40;41.70
38936;DHT22;66589;47.458;9.644;2023-06-26T14:25:02;34.50;41.90
38936;DHT22;66589;47.458;9.644;2023-06-26T14:27:28;34.30;41.10
38936;DHT22;66589;47.458;9.644;2023-06-26T14:29:54;34.20;41.60
38936;DHT22;66589;47.458;9.644;2023-06-26T14:32:19;34.10;42.70
38936;DHT22;66589;47.458;9.644;2023-06-26T14:34:45;33.90;42.60
38936;DHT22;66589;47.458;9.644;2023-06-26T14:37:10;33.60;44.10
38936;DHT22;66589;47.458;9.644;2023-06-26T14:39:36;33.40;45.70
38936;DHT22;66589;47.458;9.644;2023-06-26T14:42:04;33.00;45.80
38936;DHT22;66589;47.458;9.644;2023-06-26T14:44:30;32.60;46.20
38936;DHT22;66589;47.458;9.644;2023-06-26T14:46:56;32.40;47.70
38936;DHT22;66589;47.458;9.644;2023-06-26T14:49:21;32.30;47.90
38936;DHT22;66589;47.458;9.644;2023-06-26T14:51:47;32.50;49.90
38936;DHT22;66589;47.458;9.644;2023-06-26T14:54:13;32.40;49.60
38936;DHT22;66589;47.458;9.644;2023-06-26T14:56:41;32.30;49.70
38936;DHT22;66589;47.458;9.644;2023-06-26T14:59:09;32.30;50.60
38936;DHT22;66589;47.458;9.644;2023-06-26T15:01:35;32.10;51.20
38936;DHT22;66589;47.458;9.644;2023-06-26T15:04:01;32.00;52.20
38936;DHT22;66589;47.458;9.644;2023-06-26T15:06:27;32.00;51.10
38936;DHT22;66589;47.458;9.644;2023-06-26T15:08:52;32.20;51.80
38936;DHT22;66589;47.458;9.644;2023-06-26T15:11:18;32.40;50.60
38936;DHT22;66589;47.458;9.644;2023-06-26T15:13:44;32.60;50.70
38936;DHT22;66589;47.458;9.644;2023-06-26T15:16:09;32.80;49.30
38936;DHT22;66589;47.458;9.644;2023-06-26T15:18:35;32.90;48.50
38936;DHT22;66589;47.458;9.644;2023-06-26T15:21:01;33.00;48.80
38936;DHT22;66589;47.458;9.644;2023-06-26T15:23:28;33.10;47.90
38936;DHT22;66589;47.458;9.644;2023-06-26T15:25:54;33.10;49.10
38936;DHT22;66589;47.458;9.644;2023-06-26T15:28:20;33.10;49.10
38936;DHT22;66589;47.458;9.644;2023-06-26T15:30:46;33.10;48.60
38936;DHT22;66589;47.458;9.644;2023-06-26T15:33:12;33.20;48.10
38936;DHT22;66589;47.458;9.644;2023-06-26T15:35:38;33.20;48.80
38936;DHT22;66589;47.458;9.644;2023-06-26T15:38:04;33.10;49.50
38936;DHT22;66589;47.458;9.644;2023-06-26T15:40:30;33.10;50.00
38936;DHT22;66589;47.458;9.644;2023-06-26T15:42:56;33.00;50.00
38936;DHT22;66589;47.458;9.644;2023-06-26T15:45:22;32.80;49.20
38936;DHT22;66589;47.458;9.644;2023-06-26T15:47:50;32.70;49.70
38936;DHT22;66589;47.458;9.644;2023-06-26T15:50:16;32.60;50.20
38936;DHT22;66589;47.458;9.644;2023-06-26T15:52:41;32.60;49.90
38936;DHT22;66589;47.458;9.644;2023-06-26T15:55:07;32.50;50.60
38936;DHT22;66589;47.458;9.644;2023-06-26T15:57:35;32.50;50.10
38936;DHT22;66589;47.458;9.644;2023-06-26T16:00:02;32.50;49.70
38936;DHT22;66589;47.458;9.644;2023-06-26T16:02:29;32.40;49.10
38936;DHT22;66589;47.458;9.644;2023-06-26T16:04:54;32.30;49.00
38936;DHT22;66589;47.458;9.644;2023-06-26T16:07:20;32.20;49.60
38936;DHT22;66589;47.458;9.644;2023-06-26T16:09:46;32.10;49.90
38936;DHT22;66589;47.458;9.644;2023-06-26T16:12:12;32.10;49.40
38936;DHT22;66589;47.458;9.644;2023-06-26T16:14:39;32.10;49.80
38936;DHT22;66589;47.458;9.644;2023-06-26T16:17:06;32.00;50.50
38936;DHT22;66589;47.458;9.644;2023-06-26T16:19:31;32.00;50.70
38936;DHT22;66589;47.458;9.644;2023-06-26T16:21:57;32.00;51.40
38936;DHT22;66589;47.458;9.644;2023-06-26T16:24:23;32.00;51.70
38936;DHT22;66589;47.458;9.644;2023-06-26T16:26:48;32.00;53.10
38936;DHT22;66589;47.458;9.644;2023-06-26T16:29:15;32.00;52.30
38936;DHT22;66589;47.458;9.644;2023-06-26T16:31:41;32.00;52.80
38936;DHT22;66589;47.458;9.644;2023-06-26T16:34:07;32.10;52.90
38936;DHT22;66589;47.458;9.644;2023-06-26T16:36:32;32.00;51.60
38936;DHT22;66589;47.458;9.644;2023-06-26T16:38:58;32.00;50.10
38936;DHT22;66589;47.458;9.644;2023-06-26T16:41:24;31.90;50.40
38936;DHT22;66589;47.458;9.644;2023-06-26T16:43:50;31.80;49.80
38936;DHT22;66589;47.458;9.644;2023-06-26T16:46:15;31.80;50.30
38936;DHT22;66589;47.458;9.644;2023-06-26T16:48:41;31.80;49.50
38936;DHT22;66589;47.458;9.644;2023-06-26T16:51:07;31.80;50.20
38936;DHT22;66589;47.458;9.644;2023-06-26T16:53:33;31.70;49.80
38936;DHT22;66589;47.458;9.644;2023-06-26T16:55:58;31.70;49.50
38936;DHT22;66589;47.458;9.644;2023-06-26T16:58:24;31.60;49.90
38936;DHT22;66589;47.458;9.644;2023-06-26T17:00:50;31.50;49.40
38936;DHT22;66589;47.458;9.644;2023-06-26T17:03:16;31.40;50.20
38936;DHT22;66589;47.458;9.644;2023-06-26T17:05:42;31.30;49.60
38936;DHT22;66589;47.458;9.644;2023-06-26T17:08:08;31.20;49.90
38936;DHT22;66589;47.458;9.644;2023-06-26T17:10:36;31.20;49.70
38936;DHT22;66589;47.458;9.644;2023-06-26T17:13:01;31.20;49.10
38936;DHT22;66589;47.458;9.644;2023-06-26T17:15:27;31.10;49.20
38936;DHT22;66589;47.458;9.644;2023-06-26T17:17:53;31.00;49.20
38936;DHT22;66589;47.458;9.644;2023-06-26T17:20:19;31.00;49.10
38936;DHT22;66589;47.458;9.644;2023-06-26T17:22:45;30.90;50.20
38936;DHT22;66589;47.458;9.644;2023-06-26T17:25:13;30.90;49.80
38936;DHT22;66589;47.458;9.644;2023-06-26T17:27:39;30.80;49.10
38936;DHT22;66589;47.458;9.644;2023-06-26T17:30:06;30.70;50.20
38936;DHT22;66589;47.458;9.644;2023-06-26T17:32:32;30.60;50.20
38936;DHT22;66589;47.458;9.644;2023-06-26T17:34:58;30.70;49.90
38936;DHT22;66589;47.458;9.644;2023-06-26T17:37:24;30.60;48.30
38936;DHT22;66589;47.458;9.644;2023-06-26T17:39:52;30.50;47.60
38936;DHT22;66589;47.458;9.644;2023-06-26T17:42:18;30.40;48.00
38936;DHT22;66589;47.458;9.644;2023-06-26T17:44:43;30.40;47.30
38936;DHT22;66589;47.458;9.644;2023-06-26T17:47:09;30.20;46.70
38936;DHT22;66589;47.458;9.644;2023-06-26T17:49:35;30.00;45.50
38936;DHT22;66589;47.458;9.644;2023-06-26T17:52:00;29.90;46.00
38936;DHT22;66589;47.458;9.644;2023-06-26T17:54:26;29.90;46.00
38936;DHT22;66589;47.458;9.644;2023-06-26T17:56:52;29.90;46.00
38936;DHT22;66589;47.458;9.644;2023-06-26T17:59:18;29.80;44.90
38936;DHT22;66589;47.458;9.644;2023-06-26T18:01:44;29.80;44.40
38936;DHT22;66589;47.458;9.644;2023-06-26T18:04:10;29.60;44.00
38936;DHT22;66589;47.458;9.644;2023-06-26T18:06:36;29.50;43.90
38936;DHT22;66589;47.458;9.644;2023-06-26T18:09:03;29.50;43.10
38936;DHT22;66589;47.458;9.644;2023-06-26T18:11:33;29.40;43.70
38936;DHT22;66589;47.458;9.644;2023-06-26T18:14:01;29.30;42.70
38936;DHT22;66589;47.458;9.644;2023-06-26T18:16:27;29.20;43.40
38936;DHT22;66589;47.458;9.644;2023-06-26T18:18:54;29.10;47.20
38936;DHT22;66589;47.458;9.644;2023-06-26T18:21:20;28.90;44.00
38936;DHT22;66589;47.458;9.644;2023-06-26T18:23:46;28.80;43.50
38936;DHT22;66589;47.458;9.644;2023-06-26T18:26:15;28.60;46.10
38936;DHT22;66589;47.458;9.644;2023-06-26T18:28:40;28.50;43.30
38936;DHT22;66589;47.458;9.644;2023-06-26T18:31:06;28.60;45.40
38936;DHT22;66589;47.458;9.644;2023-06-26T18:33:36;28.40;43.90
38936;DHT22;66589;47.458;9.644;2023-06-26T18:36:03;28.40;45.20
38936;DHT22;66589;47.458;9.644;2023-06-26T18:38:29;28.30;44.90
38936;DHT22;66589;47.458;9.644;2023-06-26T18:40:55;28.20;44.80
38936;DHT22;66589;47.458;9.644;2023-06-26T18:43:22;28.20;45.00
38936;DHT22;66589;47.458;9.644;2023-06-26T18:45:50;28.10;46.00
38936;DHT22;66589;47.458;9.644;2023-06-26T18:48:16;28.00;44.70
38936;DHT22;66589;47.458;9.644;2023-06-26T18:50:42;28.00;45.10
38936;DHT22;66589;47.458;9.644;2023-06-26T18:53:07;27.90;45.10
38936;DHT22;66589;47.458;9.644;2023-06-26T18:55:33;27.90;45.10
38936;DHT22;66589;47.458;9.644;2023-06-26T18:58:00;27.90;46.00
38936;DHT22;66589;47.458;9.644;2023-06-26T19:00:29;27.80;46.00